Wolvega, Netherlands
Current Conditions -  °F | °C
As of 9:40 AM on Saturday 29 Nov 2014 (Local Time) from EHLW Reporting Station
Haze Haze  
Wind Chill: 26°   Ceiling: Unl
Heat Index: 34°   Visibility: 2.8mi
Dew Point: 32°   Wind: 9mph
Humidity: 93%   Direction: 100°E
Pressure: 30.03"   Gusts: NA
Location:  52.88°N, 6°E
Report Text: EHLW 290840Z AUTO 10008KT 4500 BR FEW007 SCT010 01/M00 Q1017 GRN
Loading
Personal Weather Stations






























Interactive Weather Map New forecast layout! Learn more

10-Day Weather Forecast

Advertisements
Track Severe Weather on mobile